KRUE

Russellville Regional Airport

Russellville, Arkansas, USA
METAR KRUE 211413Z AUTO 30004KT 6SM -RA BR SCT015 OVC110 22/21 A3007 RMK AO2 P0001 T02170206
Observed Flight Rules
May-21 @ 14:13 UTC (35 minutes ago) Visual Flight Rules
Wind Visibility Clouds Conditions
300° at 4 knots 6 miles
  • Scattered at 1,500' AGL
  • Overcast at 11,000' AGL
  • Light Rain
  • Mist
Temperatures Readings Precipitation
Current 22°C / 72°F
Dewpoint 21°C / 70°F
Humidity 94%
Altimeter 30.07" Hg
Pressure 1018 hPa
Elevation 115
Current Rain 0.01
METAR KRUE 211413Z AUTO 30004KT 6SM -RA BR SCT015 OVC110 22/21 A3007 RMK AO2 P0001 T02170206
Observed Flight Rules
May-21 @ 14:13 UTC
(35 minutes ago)
VFR
Wind Visibility
300° at 4 knots 6 miles
Clouds
  • Scattered at 1,500' AGL
  • Overcast at 11,000' AGL
Conditions
  • Light Rain
  • Mist
Temperature Dewpoint
22°C / 72°F 21°C / 70°F
Humidity Altimeter Pressure
94% 30.07" Hg 1018 hPa
Current Rain
0.01